Time;durP1;ratioP1;P1;durP2;ratioP2;P2;SDS_P1;SDS_P2;PMS_P1;PMS_P2;Temp;Humidity;BMP_temperature;BMP_pressure;BME280_temperature;BME280_humidity;BME280_pressure;Samples;Min_cycle;Max_cycle;Signal;HPM_P1;HPM_P2
2022/11/22 00:01:27;;;;;;;4.40;1.35;;;;;;;;;;5039787;28;20562;-81
2022/11/22 00:03:53;;;;;;;4.60;1.70;;;;;;;;;;5057391;28;20309;-81
2022/11/22 00:06:19;;;;;;;1.58;1.48;;;;;;;;;;5040591;28;20188;-81
2022/11/22 00:08:45;;;;;;;3.15;1.05;;;;;;;;;;5039809;28;20180;-81
2022/11/22 00:11:11;;;;;;;1.87;1.33;;;;;;;;;;5040034;28;20636;-81
2022/11/22 00:13:37;;;;;;;5.40;1.77;;;;;;;;;;5039827;28;20451;-81
2022/11/22 00:16:04;;;;;;;1.50;1.20;;;;;;;;;;5041462;28;20477;-81
2022/11/22 00:18:30;;;;;;;6.20;2.13;;;;;;;;;;5055973;28;20217;-81
2022/11/22 00:20:56;;;;;;;3.78;1.10;;;;;;;;;;5058839;28;20188;-80
2022/11/22 00:23:22;;;;;;;4.65;1.70;;;;;;;;;;5019663;28;20180;-80
2022/11/22 00:25:48;;;;;;;2.78;1.90;;;;;;;;;;5036876;28;20181;-80
2022/11/22 00:28:14;;;;;;;3.50;1.40;;;;;;;;;;5054451;28;20210;-80
2022/11/22 00:30:40;;;;;;;3.67;1.30;;;;;;;;;;5019645;28;20918;-81
2022/11/22 00:33:06;;;;;;;4.37;1.70;;;;;;;;;;5020297;28;20486;-81
2022/11/22 00:35:32;;;;;;;3.70;1.40;;;;;;;;;;5024893;28;20462;-81
2022/11/22 00:37:58;;;;;;;2.93;1.30;;;;;;;;;;5054946;28;20442;-82
2022/11/22 00:40:24;;;;;;;2.90;1.27;;;;;;;;;;5057065;28;20487;-81
2022/11/22 00:42:50;;;;;;;3.50;1.40;;;;;;;;;;5054835;28;20464;-81
2022/11/22 00:45:16;;;;;;;3.63;1.33;;;;;;;;;;5037891;28;20893;-81
2022/11/22 00:47:42;;;;;;;1.77;1.40;;;;;;;;;;5039666;28;20841;-81
2022/11/22 00:50:09;;;;;;;5.00;1.50;;;;;;;;;;5055567;28;20204;-81
2022/11/22 00:52:35;;;;;;;4.55;1.60;;;;;;;;;;5054835;28;20176;-81
2022/11/22 00:55:01;;;;;;;2.53;0.87;;;;;;;;;;5055135;28;20209;-82
2022/11/22 00:57:27;;;;;;;3.88;1.38;;;;;;;;;;5055839;28;20394;-82
2022/11/22 00:59:53;;;;;;;2.53;1.50;;;;;;;;;;5050862;28;20602;-82
2022/11/22 01:02:19;;;;;;;2.67;1.20;;;;;;;;;;5036562;28;20513;-81
2022/11/22 01:04:46;;;;;;;2.65;1.10;;;;;;;;;;5036659;28;20424;-81
2022/11/22 01:07:12;;;;;;;3.08;1.67;;;;;;;;;;5051534;28;20212;-82
2022/11/22 01:09:38;;;;;;;1.95;1.35;;;;;;;;;;5052282;28;20193;-81
2022/11/22 01:12:04;;;;;;;3.40;1.15;;;;;;;;;;5051283;28;20180;-81
2022/11/22 01:14:30;;;;;;;2.35;1.13;;;;;;;;;;5034938;28;20299;-81
2022/11/22 01:16:56;;;;;;;3.23;1.30;;;;;;;;;;5035520;28;20182;-82
2022/11/22 01:19:22;;;;;;;4.07;1.13;;;;;;;;;;5051774;28;20460;-82
2022/11/22 01:21:48;;;;;;;1.98;1.10;;;;;;;;;;5032382;28;20208;-81
2022/11/22 01:24:14;;;;;;;2.60;1.50;;;;;;;;;;5033182;28;20246;-81
2022/11/22 01:26:40;;;;;;;1.63;1.20;;;;;;;;;;5015793;28;20184;-81
2022/11/22 01:29:06;;;;;;;3.53;1.50;;;;;;;;;;5014511;28;20450;-82
2022/11/22 01:31:32;;;;;;;1.88;1.48;;;;;;;;;;5031918;28;20189;-82
2022/11/22 01:33:58;;;;;;;2.78;1.40;;;;;;;;;;5015379;28;20228;-82
2022/11/22 01:36:24;;;;;;;3.85;1.15;;;;;;;;;;5030904;28;20396;-82
2022/11/22 01:38:51;;;;;;;2.20;1.23;;;;;;;;;;5031790;28;20177;-82
2022/11/22 01:41:17;;;;;;;2.50;1.33;;;;;;;;;;5032519;28;20174;-82
2022/11/22 01:43:43;;;;;;;2.85;1.38;;;;;;;;;;5031078;28;20188;-82
2022/11/22 01:46:15;;;;;;;1.50;1.38;;;;;;;;;;5014641;28;20190;-81
2022/11/22 01:48:52;;;;;;;6.25;1.17;;;;;;;;;;5031322;28;20168;-82
2022/11/22 01:51:20;;;;;;;1.08;0.77;;;;;;;;;;5030268;28;20181;-82
2022/11/22 01:53:46;;;;;;;3.97;1.30;;;;;;;;;;5032711;28;20181;-82
2022/11/22 01:56:14;;;;;;;4.57;1.40;;;;;;;;;;5034692;28;20218;-81
2022/11/22 01:58:41;;;;;;;1.10;0.82;;;;;;;;;;5034628;28;20296;-82
2022/11/22 02:01:07;;;;;;;4.10;1.10;;;;;;;;;;5034543;28;20631;-82
2022/11/22 02:03:34;;;;;;;1.73;1.38;;;;;;;;;;5019037;28;20178;-82
2022/11/22 02:06:00;;;;;;;2.05;1.50;;;;;;;;;;5035455;28;20182;-82
2022/11/22 02:08:52;;;;;;;3.13;1.17;;;;;;;;;;5036789;28;20234;-81
2022/11/22 02:11:19;;;;;;;4.65;1.70;;;;;;;;;;5035257;28;20531;-81
2022/11/22 02:13:45;;;;;;;1.80;1.30;;;;;;;;;;5034438;28;20223;-81
2022/11/22 02:16:11;;;;;;;3.33;1.30;;;;;;;;;;5034747;28;20211;-81
2022/11/22 02:18:37;;;;;;;2.95;1.30;;;;;;;;;;5034719;28;20175;-81
2022/11/22 02:21:04;;;;;;;6.60;1.35;;;;;;;;;;5033304;28;20275;-82
2022/11/22 02:23:49;;;;;;;7.20;1.48;;;;;;;;;;5033847;28;20271;-81
2022/11/22 02:26:15;;;;;;;4.78;1.63;;;;;;;;;;5034732;28;20556;-81
2022/11/22 02:28:41;;;;;;;3.75;1.20;;;;;;;;;;5035473;28;20204;-81
2022/11/22 02:31:07;;;;;;;2.60;1.60;;;;;;;;;;5035902;28;20701;-81
2022/11/22 02:33:34;;;;;;;1.50;1.27;;;;;;;;;;5018494;28;20479;-81
2022/11/22 02:36:00;;;;;;;4.78;1.90;;;;;;;;;;5033935;28;20210;-80
2022/11/22 02:38:29;;;;;;;2.00;1.02;;;;;;;;;;5036187;28;20181;-82
2022/11/22 02:41:06;;;;;;;2.22;1.23;;;;;;;;;;5035911;28;20254;-82
2022/11/22 02:43:42;;;;;;;4.10;1.30;;;;;;;;;;5034466;28;20173;-81
2022/11/22 02:46:15;;;;;;;6.43;1.38;;;;;;;;;;5038225;28;20181;-82
2022/11/22 02:48:42;;;;;;;2.92;1.10;;;;;;;;;;5034411;28;20278;-82
2022/11/22 02:51:08;;;;;;;4.28;1.80;;;;;;;;;;5016757;28;20179;-81
2022/11/22 02:53:34;;;;;;;2.90;1.93;;;;;;;;;;5017786;28;20194;-82
2022/11/22 02:56:00;;;;;;;3.05;1.35;;;;;;;;;;5017785;28;20519;-82
2022/11/22 02:58:26;;;;;;;1.63;1.20;;;;;;;;;;5032910;28;20177;-82
2022/11/22 03:00:52;;;;;;;8.02;1.30;;;;;;;;;;5062901;28;20490;-82
2022/11/22 03:03:18;;;;;;;3.72;1.10;;;;;;;;;;5057628;28;20359;-81
2022/11/22 03:05:44;;;;;;;4.40;1.57;;;;;;;;;;5039804;28;20272;-81
2022/11/22 03:08:10;;;;;;;9.07;2.13;;;;;;;;;;5057067;28;20412;-81
2022/11/22 03:10:36;;;;;;;5.10;1.40;;;;;;;;;;5057088;28;20407;-81
2022/11/22 03:13:02;;;;;;;4.22;1.52;;;;;;;;;;5056724;28;20176;-81
2022/11/22 03:15:28;;;;;;;4.63;1.30;;;;;;;;;;5057183;28;20209;-81
2022/11/22 03:17:58;;;;;;;7.40;1.33;;;;;;;;;;5040598;28;20919;-81
2022/11/22 03:20:24;;;;;;;3.03;1.48;;;;;;;;;;5056185;28;21294;-81
2022/11/22 03:22:50;;;;;;;6.23;1.87;;;;;;;;;;5039707;28;20186;-81
2022/11/22 03:25:16;;;;;;;7.53;2.20;;;;;;;;;;5040232;28;20431;-81
2022/11/22 03:27:42;;;;;;;3.92;2.28;;;;;;;;;;5055923;28;20435;-81
2022/11/22 03:30:08;;;;;;;9.38;2.03;;;;;;;;;;5074569;28;20177;-81
2022/11/22 03:32:34;;;;;;;6.60;2.17;;;;;;;;;;5056249;28;20188;-81
2022/11/22 03:35:00;;;;;;;5.10;2.03;;;;;;;;;;5055885;28;20278;-81
2022/11/22 03:37:26;;;;;;;6.68;1.80;;;;;;;;;;5056104;28;20451;-81
2022/11/22 03:39:52;;;;;;;7.25;1.52;;;;;;;;;;5056396;28;20259;-81
2022/11/22 03:42:18;;;;;;;10.73;3.37;;;;;;;;;;5038546;28;20633;-81
2022/11/22 03:44:44;;;;;;;4.93;2.30;;;;;;;;;;5039948;28;20419;-81
2022/11/22 03:47:10;;;;;;;3.70;1.83;;;;;;;;;;5039382;28;20411;-81
2022/11/22 03:49:36;;;;;;;6.47;1.93;;;;;;;;;;5055772;28;20759;-82
2022/11/22 03:52:02;;;;;;;10.50;2.60;;;;;;;;;;5056189;28;20411;-81
2022/11/22 03:54:28;;;;;;;8.10;2.22;;;;;;;;;;5056820;28;20188;-81
2022/11/22 03:56:54;;;;;;;7.38;2.13;;;;;;;;;;5056132;28;20168;-81
2022/11/22 03:59:20;;;;;;;9.60;2.60;;;;;;;;;;5039328;28;20181;-81
2022/11/22 04:01:46;;;;;;;6.20;2.08;;;;;;;;;;5056461;28;20411;-81
2022/11/22 04:04:12;;;;;;;3.38;1.58;;;;;;;;;;5054953;28;20652;-79
2022/11/22 04:06:38;;;;;;;11.48;2.08;;;;;;;;;;5040136;28;20267;-80
2022/11/22 04:09:04;;;;;;;6.20;1.88;;;;;;;;;;5051803;28;20180;-81
2022/11/22 04:11:30;;;;;;;12.32;2.03;;;;;;;;;;5050423;28;20211;-81
2022/11/22 04:16:41;;;;;;;8.40;1.80;;;;;;;;;;5057465;28;20210;-80
2022/11/22 04:19:07;;;;;;;7.60;1.90;;;;;;;;;;5054799;28;20205;-81
2022/11/22 04:21:33;;;;;;;5.68;1.52;;;;;;;;;;5055800;28;20176;-81
2022/11/22 04:26:45;;;;;;;4.22;1.55;;;;;;;;;;5056693;28;20699;-81
2022/11/22 04:29:11;;;;;;;9.43;1.70;;;;;;;;;;5055113;28;20210;-81
2022/11/22 04:34:21;;;;;;;9.35;2.50;;;;;;;;;;5072018;28;20415;-81
2022/11/22 04:36:47;;;;;;;8.30;2.87;;;;;;;;;;5055289;28;20200;-81
2022/11/22 04:39:13;;;;;;;5.13;2.70;;;;;;;;;;5038727;28;20407;-81
2022/11/22 04:41:39;;;;;;;14.73;5.00;;;;;;;;;;5072591;28;20420;-81
2022/11/22 04:46:50;;;;;;;7.28;1.90;;;;;;;;;;5058046;28;20453;-81
2022/11/22 04:49:16;;;;;;;16.80;1.90;;;;;;;;;;5037829;28;20208;-81
2022/11/22 04:54:26;;;;;;;5.25;2.05;;;;;;;;;;5058265;28;20206;-81
2022/11/22 04:56:52;;;;;;;5.72;1.83;;;;;;;;;;5054457;28;20185;-81
2022/11/22 04:59:18;;;;;;;4.45;1.70;;;;;;;;;;5038333;28;20549;-81
2022/11/22 05:01:44;;;;;;;7.60;1.98;;;;;;;;;;5038712;28;20211;-81
2022/11/22 05:04:10;;;;;;;5.90;1.98;;;;;;;;;;5037634;28;20194;-81
2022/11/22 05:06:36;;;;;;;7.03;2.30;;;;;;;;;;5039081;28;20371;-81
2022/11/22 05:09:03;;;;;;;5.00;1.80;;;;;;;;;;5054896;28;20427;-81
2022/11/22 05:11:29;;;;;;;10.45;2.00;;;;;;;;;;5053798;28;20180;-81
2022/11/22 05:13:55;;;;;;;9.25;2.10;;;;;;;;;;5038565;28;20199;-81
2022/11/22 05:16:21;;;;;;;5.20;2.17;;;;;;;;;;5054372;28;20243;-80
2022/11/22 05:18:57;;;;;;;12.10;2.13;;;;;;;;;;5053742;28;20271;-80
2022/11/22 05:21:24;;;;;;;5.90;2.08;;;;;;;;;;5072876;28;20427;-81
2022/11/22 05:23:53;;;;;;;8.82;2.20;;;;;;;;;;5054174;28;20589;-81
2022/11/22 05:26:19;;;;;;;8.75;2.58;;;;;;;;;;5052512;28;20241;-80
2022/11/22 05:28:45;;;;;;;9.70;2.40;;;;;;;;;;5038358;28;20188;-80
2022/11/22 05:31:15;;;;;;;7.07;1.90;;;;;;;;;;5045535;28;20597;-81
2022/11/22 05:33:42;;;;;;;7.82;2.35;;;;;;;;;;5033935;28;20281;-81
2022/11/22 05:36:09;;;;;;;10.20;2.13;;;;;;;;;;5034973;28;20239;-81
2022/11/22 05:38:36;;;;;;;11.43;1.85;;;;;;;;;;5035983;28;20646;-81
2022/11/22 05:41:03;;;;;;;7.72;2.55;;;;;;;;;;5035428;28;20184;-81
2022/11/22 05:43:29;;;;;;;9.95;2.05;;;;;;;;;;5019511;28;20188;-80
2022/11/22 05:45:55;;;;;;;5.70;2.72;;;;;;;;;;5019780;28;20235;-80
2022/11/22 05:48:21;;;;;;;3.40;2.40;;;;;;;;;;5018873;28;20174;-81
2022/11/22 05:50:47;;;;;;;8.50;2.40;;;;;;;;;;5035638;28;20189;-81
2022/11/22 05:53:13;;;;;;;9.75;2.60;;;;;;;;;;5019233;28;20182;-81
2022/11/22 05:55:39;;;;;;;6.53;2.35;;;;;;;;;;5035736;28;20201;-80
2022/11/22 05:58:05;;;;;;;4.60;2.22;;;;;;;;;;5036933;28;20177;-80
2022/11/22 06:00:31;;;;;;;13.17;2.50;;;;;;;;;;5035800;28;20596;-80
2022/11/22 06:03:00;;;;;;;5.95;2.75;;;;;;;;;;5018864;28;20449;-81
2022/11/22 06:05:27;;;;;;;8.13;2.72;;;;;;;;;;5019194;28;20216;-80
2022/11/22 06:07:53;;;;;;;9.10;2.55;;;;;;;;;;5053322;28;20498;-80
2022/11/22 06:10:19;;;;;;;5.22;1.90;;;;;;;;;;5018511;28;20684;-81
2022/11/22 06:12:45;;;;;;;8.88;2.22;;;;;;;;;;5019242;28;20275;-80
2022/11/22 06:15:11;;;;;;;6.97;2.77;;;;;;;;;;5019486;28;20546;-80
2022/11/22 06:17:37;;;;;;;10.23;2.25;;;;;;;;;;5018284;28;20450;-80
2022/11/22 06:20:03;;;;;;;12.00;2.80;;;;;;;;;;5018954;28;20533;-81
2022/11/22 06:22:30;;;;;;;10.43;3.10;;;;;;;;;;5018957;28;20185;-81
2022/11/22 06:24:56;;;;;;;8.75;2.45;;;;;;;;;;5037480;28;20188;-80
2022/11/22 06:27:22;;;;;;;14.00;2.53;;;;;;;;;;5033470;28;20181;-81
2022/11/22 06:29:48;;;;;;;5.65;2.08;;;;;;;;;;5073377;28;20184;-81
2022/11/22 06:32:14;;;;;;;6.47;1.90;;;;;;;;;;5054240;28;20210;-81
2022/11/22 06:34:40;;;;;;;5.65;3.10;;;;;;;;;;5055146;28;20416;-81
2022/11/22 06:37:06;;;;;;;9.43;2.30;;;;;;;;;;5055357;28;20289;-81
2022/11/22 06:39:32;;;;;;;13.25;2.58;;;;;;;;;;5071829;28;20173;-81
2022/11/22 06:41:58;;;;;;;5.07;2.55;;;;;;;;;;5075869;28;20184;-81
2022/11/22 06:44:24;;;;;;;7.18;2.40;;;;;;;;;;5058352;28;20188;-81
2022/11/22 06:46:50;;;;;;;12.23;2.47;;;;;;;;;;5076047;28;20200;-81
2022/11/22 06:49:16;;;;;;;6.78;2.05;;;;;;;;;;5041885;28;20181;-81
2022/11/22 06:51:41;;;;;;;12.77;2.38;;;;;;;;;;5042177;28;20180;-81
2022/11/22 06:54:11;;;;;;;7.45;2.78;;;;;;;;;;5041118;28;20238;-81
2022/11/22 06:56:38;;;;;;;10.10;3.10;;;;;;;;;;5076207;28;20250;-81
2022/11/22 06:59:05;;;;;;;8.98;2.22;;;;;;;;;;5076940;28;20180;-81
2022/11/22 07:01:32;;;;;;;10.27;2.75;;;;;;;;;;5056960;28;20294;-81
2022/11/22 07:03:58;;;;;;;5.63;2.03;;;;;;;;;;5058266;28;20173;-81
2022/11/22 07:06:25;;;;;;;7.25;2.47;;;;;;;;;;5076034;28;20524;-81
2022/11/22 07:08:51;;;;;;;3.78;1.98;;;;;;;;;;5057735;28;20181;-81
2022/11/22 07:11:19;;;;;;;9.90;2.75;;;;;;;;;;5041265;28;20180;-81
2022/11/22 07:13:45;;;;;;;5.53;2.60;;;;;;;;;;5058822;28;20189;-81
2022/11/22 07:16:12;;;;;;;11.50;3.20;;;;;;;;;;5057384;28;20246;-81
2022/11/22 07:18:39;;;;;;;8.85;3.28;;;;;;;;;;5057826;28;20190;-81
2022/11/22 07:21:07;;;;;;;4.47;1.80;;;;;;;;;;5076145;28;20173;-82
2022/11/22 07:23:33;;;;;;;7.95;2.72;;;;;;;;;;5074693;28;20173;-81
2022/11/22 07:25:59;;;;;;;5.95;2.15;;;;;;;;;;5071237;28;20196;-81
2022/11/22 07:28:25;;;;;;;9.13;2.50;;;;;;;;;;5042234;28;20204;-80
2022/11/22 07:30:51;;;;;;;8.60;2.25;;;;;;;;;;5037231;28;20416;-81
2022/11/22 07:33:17;;;;;;;11.95;2.03;;;;;;;;;;5021181;28;20178;-81
2022/11/22 07:35:43;;;;;;;6.40;2.50;;;;;;;;;;5037705;28;20683;-80
2022/11/22 07:38:09;;;;;;;11.23;4.05;;;;;;;;;;5020853;28;20177;-81
2022/11/22 07:40:35;;;;;;;10.82;2.53;;;;;;;;;;5020390;28;20211;-80
2022/11/22 07:43:01;;;;;;;8.73;2.25;;;;;;;;;;5037543;28;20169;-81
2022/11/22 07:45:27;;;;;;;4.97;2.40;;;;;;;;;;5021074;28;20231;-81
2022/11/22 07:47:53;;;;;;;11.10;2.60;;;;;;;;;;5037983;28;20456;-81
2022/11/22 07:50:19;;;;;;;8.60;2.87;;;;;;;;;;5038147;28;20260;-81
2022/11/22 07:52:45;;;;;;;5.43;2.90;;;;;;;;;;5054695;28;20769;-80
2022/11/22 07:55:11;;;;;;;5.63;2.78;;;;;;;;;;5037468;28;20354;-81
2022/11/22 07:57:37;;;;;;;12.60;2.47;;;;;;;;;;5054926;28;20207;-80
2022/11/22 08:00:04;;;;;;;7.13;2.40;;;;;;;;;;5036926;28;20490;-80
2022/11/22 08:02:30;;;;;;;3.53;1.90;;;;;;;;;;5036523;28;20169;-82
2022/11/22 08:04:56;;;;;;;8.02;2.10;;;;;;;;;;5054020;28;20294;-80
2022/11/22 08:07:22;;;;;;;7.55;2.42;;;;;;;;;;5034202;28;20227;-81
2022/11/22 08:09:48;;;;;;;6.97;1.85;;;;;;;;;;5054071;28;20176;-79
2022/11/22 08:12:14;;;;;;;10.40;2.60;;;;;;;;;;5034744;28;20185;-80
2022/11/22 08:14:40;;;;;;;8.07;2.40;;;;;;;;;;5035762;28;20408;-80
2022/11/22 08:17:06;;;;;;;12.47;3.50;;;;;;;;;;5020011;28;20565;-79
2022/11/22 08:19:34;;;;;;;14.52;2.30;;;;;;;;;;5035290;28;20905;-80
2022/11/22 08:22:00;;;;;;;7.05;2.47;;;;;;;;;;5020161;28;20639;-81
2022/11/22 08:24:26;;;;;;;8.20;2.03;;;;;;;;;;5036728;28;20181;-81
2022/11/22 08:26:52;;;;;;;7.30;2.25;;;;;;;;;;5053508;28;20928;-80
2022/11/22 08:29:18;;;;;;;6.00;2.22;;;;;;;;;;5036772;28;20300;-81
2022/11/22 08:31:44;;;;;;;5.78;2.28;;;;;;;;;;5036125;28;20189;-81
2022/11/22 08:34:10;;;;;;;8.90;3.20;;;;;;;;;;5036560;28;20664;-81
2022/11/22 08:36:36;;;;;;;6.85;1.75;;;;;;;;;;5035265;28;20463;-81
2022/11/22 08:39:02;;;;;;;10.07;2.35;;;;;;;;;;5054435;28;20169;-81
2022/11/22 08:41:29;;;;;;;7.38;1.83;;;;;;;;;;5054342;28;20183;-82
2022/11/22 08:43:55;;;;;;;5.70;1.70;;;;;;;;;;5036605;28;20196;-81
2022/11/22 08:46:21;;;;;;;12.18;3.17;;;;;;;;;;5036228;28;20180;-82
2022/11/22 08:48:47;;;;;;;7.22;2.00;;;;;;;;;;5036287;28;20235;-81
2022/11/22 08:51:13;;;;;;;7.60;1.90;;;;;;;;;;5036437;28;20203;-82
2022/11/22 08:53:40;;;;;;;8.30;1.70;;;;;;;;;;5020474;28;20184;-81
2022/11/22 08:56:08;;;;;;;7.25;1.67;;;;;;;;;;5058008;28;20202;-81
2022/11/22 08:58:34;;;;;;;3.13;1.52;;;;;;;;;;5035762;28;20227;-81
2022/11/22 09:01:07;;;;;;;10.73;2.20;;;;;;;;;;5054267;28;20575;-81
2022/11/22 09:03:34;;;;;;;8.00;1.65;;;;;;;;;;5053431;28;20193;-82
2022/11/22 09:06:04;;;;;;;7.63;1.98;;;;;;;;;;5037110;28;20239;-81
2022/11/22 09:08:34;;;;;;;5.90;1.60;;;;;;;;;;5035651;28;20520;-82
2022/11/22 09:11:00;;;;;;;7.38;1.70;;;;;;;;;;5053345;28;20223;-81
2022/11/22 09:13:27;;;;;;;2.50;1.58;;;;;;;;;;5053546;28;20256;-81
2022/11/22 09:15:53;;;;;;;10.48;2.22;;;;;;;;;;5036328;28;20209;-81
2022/11/22 09:18:19;;;;;;;6.75;3.00;;;;;;;;;;5020454;28;20179;-81
2022/11/22 09:20:45;;;;;;;6.10;2.72;;;;;;;;;;5054301;28;20199;-81
2022/11/22 09:23:11;;;;;;;4.93;1.70;;;;;;;;;;5053892;28;20187;-81
2022/11/22 09:25:37;;;;;;;4.97;2.38;;;;;;;;;;5053636;28;20179;-82
2022/11/22 09:28:03;;;;;;;10.32;2.17;;;;;;;;;;5035833;28;20219;-81
2022/11/22 09:30:30;;;;;;;11.23;1.80;;;;;;;;;;5053578;28;20186;-82
2022/11/22 09:32:56;;;;;;;4.78;1.65;;;;;;;;;;5035877;28;20177;-82
2022/11/22 09:35:22;;;;;;;6.65;1.73;;;;;;;;;;5053449;28;20559;-81
2022/11/22 09:37:48;;;;;;;8.35;1.83;;;;;;;;;;5054119;28;20204;-82
2022/11/22 09:40:15;;;;;;;10.15;2.58;;;;;;;;;;5035716;28;20220;-81
2022/11/22 09:42:47;;;;;;;5.53;1.10;;;;;;;;;;5053979;28;20517;-81
2022/11/22 09:45:25;;;;;;;9.73;2.42;;;;;;;;;;5054057;28;20254;-81
2022/11/22 09:48:10;;;;;;;9.35;2.13;;;;;;;;;;5036090;28;20176;-81
2022/11/22 09:50:43;;;;;;;6.65;2.13;;;;;;;;;;5054042;28;20257;-81
2022/11/22 09:53:15;;;;;;;8.82;1.88;;;;;;;;;;5054259;28;20192;-81
2022/11/22 09:55:45;;;;;;;3.88;1.75;;;;;;;;;;5039158;28;20212;-80
2022/11/22 09:58:32;;;;;;;7.72;1.75;;;;;;;;;;5054580;28;20174;-81
2022/11/22 10:01:06;;;;;;;8.07;2.10;;;;;;;;;;5053925;28;20547;-81
2022/11/22 10:03:41;;;;;;;3.10;1.67;;;;;;;;;;5053385;28;20283;-81
2022/11/22 10:06:11;;;;;;;4.15;0.98;;;;;;;;;;5054006;28;20169;-81
2022/11/22 10:08:51;;;;;;;2.67;1.25;;;;;;;;;;5035728;28;20260;-81
2022/11/22 10:11:36;;;;;;;5.30;1.25;;;;;;;;;;5037231;28;20173;-82
2022/11/22 10:14:11;;;;;;;5.07;1.60;;;;;;;;;;5036199;28;20181;-81
2022/11/22 10:16:43;;;;;;;6.13;1.70;;;;;;;;;;5039685;28;20200;-81
2022/11/22 10:19:09;;;;;;;1.98;1.10;;;;;;;;;;5039661;28;20185;-82
2022/11/22 10:21:36;;;;;;;5.95;1.23;;;;;;;;;;5038572;28;20231;-82
2022/11/22 10:24:02;;;;;;;3.33;1.10;;;;;;;;;;5038754;28;20170;-82
2022/11/22 10:26:31;;;;;;;7.57;1.15;;;;;;;;;;5056172;28;20348;-82
2022/11/22 10:29:16;;;;;;;3.10;1.73;;;;;;;;;;5056381;28;20577;-82
2022/11/22 10:31:51;;;;;;;1.90;1.20;;;;;;;;;;5056102;28;20180;-82
2022/11/22 10:34:31;;;;;;;3.15;1.90;;;;;;;;;;5057358;28;20173;-82
2022/11/22 10:37:22;;;;;;;3.85;1.30;;;;;;;;;;5056638;28;20183;-81
2022/11/22 10:39:48;;;;;;;2.55;1.02;;;;;;;;;;5038716;28;20176;-82
2022/11/22 10:42:20;;;;;;;4.07;1.23;;;;;;;;;;5038812;28;20515;-82
2022/11/22 10:45:05;;;;;;;2.35;0.90;;;;;;;;;;5056394;28;20761;-81
2022/11/22 10:47:38;;;;;;;3.67;1.00;;;;;;;;;;5038066;28;20169;-82
2022/11/22 10:50:13;;;;;;;1.75;1.10;;;;;;;;;;5038661;28;20257;-81
2022/11/22 10:52:43;;;;;;;6.90;1.52;;;;;;;;;;5038295;28;20188;-82
2022/11/22 10:55:27;;;;;;;3.42;0.90;;;;;;;;;;5056799;28;20201;-81
2022/11/22 10:57:59;;;;;;;2.45;1.00;;;;;;;;;;5055809;28;20173;-82
2022/11/22 11:00:26;;;;;;;2.58;1.40;;;;;;;;;;5038135;28;20248;-81
2022/11/22 11:03:11;;;;;;;3.75;1.00;;;;;;;;;;5055938;28;20170;-82
2022/11/22 11:05:49;;;;;;;2.80;0.95;;;;;;;;;;5031737;28;20196;-83
2022/11/22 11:08:17;;;;;;;4.25;0.95;;;;;;;;;;5035908;28;20315;-81
2022/11/22 11:10:43;;;;;;;3.00;1.00;;;;;;;;;;5051019;28;20268;-82
2022/11/22 11:13:15;;;;;;;1.75;0.70;;;;;;;;;;5032951;28;20177;-82
2022/11/22 11:15:49;;;;;;;1.20;0.98;;;;;;;;;;5033515;28;20290;-82
2022/11/22 11:18:38;;;;;;;2.80;0.80;;;;;;;;;;5051394;28;20173;-82
2022/11/22 11:21:06;;;;;;;1.63;0.77;;;;;;;;;;5051261;28;20213;-82
2022/11/22 11:23:32;;;;;;;0.88;0.70;;;;;;;;;;5037550;28;20162;-82
2022/11/22 11:26:13;;;;;;;2.10;0.90;;;;;;;;;;5033145;28;20193;-81
2022/11/22 11:28:39;;;;;;;2.90;1.02;;;;;;;;;;5051836;28;20181;-82
2022/11/22 11:31:09;;;;;;;2.10;0.95;;;;;;;;;;5033418;28;20208;-80
2022/11/22 11:33:37;;;;;;;2.53;1.30;;;;;;;;;;5051316;28;20174;-82
2022/11/22 11:36:03;;;;;;;2.05;0.75;;;;;;;;;;5033584;28;20216;-82
2022/11/22 11:38:33;;;;;;;1.93;0.70;;;;;;;;;;5036072;28;20231;-82
2022/11/22 11:41:18;;;;;;;2.65;0.70;;;;;;;;;;5037981;28;20507;-82
2022/11/22 11:43:45;;;;;;;2.15;0.75;;;;;;;;;;5056171;28;20184;-81
2022/11/22 11:46:21;;;;;;;1.70;0.90;;;;;;;;;;5057125;28;20170;-82
2022/11/22 11:48:48;;;;;;;1.23;0.70;;;;;;;;;;5055952;28;20173;-82
2022/11/22 11:51:22;;;;;;;1.70;1.15;;;;;;;;;;5038257;28;20185;-82
2022/11/22 11:53:56;;;;;;;5.93;1.25;;;;;;;;;;5055934;28;20178;-82
2022/11/22 11:56:34;;;;;;;2.03;0.82;;;;;;;;;;5039046;28;20212;-82
2022/11/22 11:59:03;;;;;;;1.63;0.90;;;;;;;;;;5038434;28;20170;-83
2022/11/22 12:01:32;;;;;;;2.28;0.85;;;;;;;;;;5038202;28;20260;-83
2022/11/22 12:04:01;;;;;;;0.98;0.60;;;;;;;;;;5056215;28;20177;-83
2022/11/22 12:06:28;;;;;;;3.17;0.60;;;;;;;;;;5038058;28;20188;-83
2022/11/22 12:08:55;;;;;;;4.88;0.90;;;;;;;;;;5037900;28;20174;-82
2022/11/22 12:11:40;;;;;;;1.40;0.65;;;;;;;;;;5038166;28;20174;-82
2022/11/22 12:14:10;;;;;;;1.35;0.70;;;;;;;;;;5037769;28;20268;-81
2022/11/22 12:16:50;;;;;;;3.08;0.80;;;;;;;;;;5037601;28;20213;-82
2022/11/22 12:19:20;;;;;;;2.30;1.00;;;;;;;;;;5055593;28;20180;-82
2022/11/22 12:21:49;;;;;;;1.77;0.80;;;;;;;;;;5054994;28;20257;-82
2022/11/22 12:24:28;;;;;;;1.83;1.20;;;;;;;;;;5037590;28;20633;-82
2022/11/22 12:26:55;;;;;;;4.25;0.70;;;;;;;;;;5055031;28;20276;-81
2022/11/22 12:29:22;;;;;;;1.08;0.65;;;;;;;;;;5037481;28;20192;-82
2022/11/22 12:31:51;;;;;;;1.10;0.70;;;;;;;;;;5054911;28;20173;-82
2022/11/22 12:34:23;;;;;;;1.40;0.80;;;;;;;;;;5037444;28;20177;-82
2022/11/22 12:37:00;;;;;;;1.33;0.80;;;;;;;;;;5037217;28;20295;-82
2022/11/22 12:39:27;;;;;;;5.95;0.80;;;;;;;;;;5036430;28;20556;-82
2022/11/22 12:42:06;;;;;;;1.20;0.93;;;;;;;;;;5036936;28;20205;-82
2022/11/22 12:44:37;;;;;;;0.70;0.60;;;;;;;;;;5052959;28;20162;-81
2022/11/22 12:47:08;;;;;;;1.00;0.85;;;;;;;;;;5050729;28;20161;-81
2022/11/22 12:49:39;;;;;;;0.85;0.70;;;;;;;;;;5049853;28;20731;-82
2022/11/22 12:52:34;;;;;;;1.08;0.60;;;;;;;;;;5049827;28;20391;-82
2022/11/22 12:55:03;;;;;;;1.40;0.80;;;;;;;;;;5039891;28;20232;-82
2022/11/22 12:57:48;;;;;;;0.90;0.65;;;;;;;;;;5032835;28;20182;-82
2022/11/22 13:00:16;;;;;;;1.33;0.60;;;;;;;;;;5035457;28;20236;-82
2022/11/22 13:03:00;;;;;;;1.48;0.80;;;;;;;;;;5054625;28;20173;-82
2022/11/22 13:05:31;;;;;;;0.70;0.60;;;;;;;;;;5036648;28;20181;-82
2022/11/22 13:08:03;;;;;;;0.70;0.60;;;;;;;;;;5054256;28;20311;-81
2022/11/22 13:10:45;;;;;;;0.60;0.50;;;;;;;;;;5036746;28;20178;-82
2022/11/22 13:13:17;;;;;;;2.08;0.63;;;;;;;;;;5037002;28;20213;-82
2022/11/22 13:15:44;;;;;;;0.63;0.50;;;;;;;;;;5055833;28;20193;-82
2022/11/22 13:18:14;;;;;;;1.05;0.63;;;;;;;;;;5049585;28;20200;-82
2022/11/22 13:20:44;;;;;;;0.88;0.60;;;;;;;;;;5036317;28;20185;-82
2022/11/22 13:23:13;;;;;;;1.63;0.80;;;;;;;;;;5054298;28;20169;-82
2022/11/22 13:25:57;;;;;;;0.60;0.50;;;;;;;;;;5054008;28;20169;-82
2022/11/22 13:28:26;;;;;;;0.60;0.50;;;;;;;;;;5054749;28;20252;-82
2022/11/22 13:31:06;;;;;;;0.93;0.60;;;;;;;;;;5036668;28;20228;-82
2022/11/22 13:33:33;;;;;;;1.63;0.60;;;;;;;;;;5054524;28;20184;-81
2022/11/22 13:36:18;;;;;;;1.00;0.50;;;;;;;;;;5020423;28;20220;-81
2022/11/22 13:38:44;;;;;;;2.67;1.23;;;;;;;;;;5036330;28;20336;-81
2022/11/22 13:41:42;;;;;;;0.80;0.50;;;;;;;;;;5036977;28;20181;-81
2022/11/22 13:44:24;;;;;;;0.95;0.50;;;;;;;;;;5014594;28;20181;-82
2022/11/22 13:46:50;;;;;;;0.95;0.60;;;;;;;;;;5036820;28;20174;-82
2022/11/22 13:49:28;;;;;;;0.60;0.50;;;;;;;;;;5055227;28;20242;-81
2022/11/22 13:51:56;;;;;;;0.70;0.52;;;;;;;;;;5057620;28;20164;-81
2022/11/22 13:54:42;;;;;;;1.23;0.73;;;;;;;;;;5058177;28;20165;-81
2022/11/22 13:57:27;;;;;;;1.92;1.45;;;;;;;;;;5019692;28;20205;-81
2022/11/22 14:00:18;;;;;;;1.83;1.63;;;;;;;;;;5039428;28;20334;-81
2022/11/22 14:02:46;;;;;;;0.70;0.50;;;;;;;;;;5057748;28;20175;-81
2022/11/22 14:05:20;;;;;;;1.02;0.70;;;;;;;;;;5040237;28;20195;-82
2022/11/22 14:07:50;;;;;;;0.60;0.50;;;;;;;;;;5057703;28;20173;-81
2022/11/22 14:10:27;;;;;;;1.30;0.68;;;;;;;;;;5057647;28;20566;-81
2022/11/22 14:13:12;;;;;;;0.90;0.60;;;;;;;;;;5039122;28;20645;-80
2022/11/22 14:15:41;;;;;;;0.80;0.80;;;;;;;;;;5057382;28;20286;-81
2022/11/22 14:18:10;;;;;;;0.70;0.60;;;;;;;;;;5039942;28;20210;-83
2022/11/22 14:20:42;;;;;;;0.60;0.50;;;;;;;;;;5057906;28;20176;-81
2022/11/22 14:23:21;;;;;;;1.05;0.70;;;;;;;;;;5040142;28;20280;-81
2022/11/22 14:26:07;;;;;;;0.70;0.70;;;;;;;;;;5057349;28;20272;-81
2022/11/22 14:28:42;;;;;;;0.70;0.60;;;;;;;;;;5032922;28;20196;-81
2022/11/22 14:31:14;;;;;;;1.15;0.70;;;;;;;;;;5043566;28;20538;-81
2022/11/22 14:33:59;;;;;;;1.85;0.60;;;;;;;;;;5039627;28;20205;-82
2022/11/22 14:36:27;;;;;;;0.95;0.70;;;;;;;;;;5059736;28;20209;-82
2022/11/22 14:38:53;;;;;;;1.35;0.85;;;;;;;;;;5059424;28;20173;-82
2022/11/22 14:41:28;;;;;;;1.42;1.02;;;;;;;;;;5023437;28;20177;-83
2022/11/22 14:44:23;;;;;;;2.47;0.95;;;;;;;;;;5057039;28;20161;-83
2022/11/22 14:46:56;;;;;;;0.82;0.77;;;;;;;;;;5047955;28;20216;-82
2022/11/22 14:49:22;;;;;;;1.15;0.80;;;;;;;;;;5038809;28;20174;-83
2022/11/22 14:51:52;;;;;;;0.73;0.60;;;;;;;;;;5056993;28;20536;-82
2022/11/22 14:54:44;;;;;;;1.55;0.60;;;;;;;;;;5039302;28;20419;-82
2022/11/22 14:57:15;;;;;;;1.00;0.60;;;;;;;;;;5023667;28;20563;-81
2022/11/22 14:59:50;;;;;;;1.15;0.70;;;;;;;;;;5039012;28;20244;-82
2022/11/22 15:02:31;;;;;;;0.80;0.60;;;;;;;;;;5038026;28;20180;-82
2022/11/22 15:05:16;;;;;;;0.90;0.70;;;;;;;;;;5039013;28;20618;-81
2022/11/22 15:07:49;;;;;;;0.70;0.60;;;;;;;;;;5038723;28;20181;-82